Time;durP1;ratioP1;P1;durP2;ratioP2;P2;SDS_P1;SDS_P2;PMS_P1;PMS_P2;Temp;Humidity;BMP_temperature;BMP_pressure;BME280_temperature;BME280_humidity;BME280_pressure;Samples;Min_cycle;Max_cycle;Signal;HPM_P1;HPM_P2
2023/12/11 00:01:57;;;;;;;11.88;2.47;;;10.00;99.90;;;;;;4990499;28;20030;-62
2023/12/11 00:04:22;;;;;;;12.73;2.92;;;10.10;99.90;;;;;;4998250;28;20035;-62
2023/12/11 00:06:48;;;;;;;14.35;3.65;;;10.10;99.90;;;;;;4997058;28;20459;-62
2023/12/11 00:09:14;;;;;;;12.82;3.45;;;10.10;99.90;;;;;;4996599;28;20030;-62
2023/12/11 00:11:39;;;;;;;12.98;3.42;;;10.00;99.90;;;;;;5000671;28;20022;-62
2023/12/11 00:14:06;;;;;;;16.75;2.63;;;10.00;99.90;;;;;;4994718;28;20030;-62
2023/12/11 00:16:32;;;;;;;11.00;2.40;;;10.00;99.90;;;;;;4998319;28;20072;-62
2023/12/11 00:19:02;;;;;;;12.70;2.40;;;10.00;99.90;;;;;;5004161;28;20069;-62
2023/12/11 00:21:28;;;;;;;16.67;2.53;;;9.90;99.90;;;;;;5002018;28;20050;-62
2023/12/11 00:23:53;;;;;;;11.63;2.58;;;9.80;99.90;;;;;;5003172;28;20477;-62
2023/12/11 00:26:19;;;;;;;15.68;3.05;;;9.90;99.90;;;;;;4984181;28;20034;-62
2023/12/11 00:28:47;;;;;;;17.38;2.90;;;9.90;99.90;;;;;;5002048;28;20167;-62
2023/12/11 00:31:13;;;;;;;18.27;3.03;;;9.80;99.90;;;;;;5001579;28;20022;-62
2023/12/11 00:33:38;;;;;;;14.68;2.75;;;9.80;99.90;;;;;;4985564;28;20041;-62
2023/12/11 00:36:04;;;;;;;18.25;2.58;;;9.90;99.90;;;;;;4986582;28;20037;-62
2023/12/11 00:38:31;;;;;;;11.52;2.45;;;9.90;99.90;;;;;;4984817;28;20078;-62
2023/12/11 00:40:57;;;;;;;15.70;2.85;;;9.80;99.90;;;;;;4984526;28;20539;-62
2023/12/11 00:43:22;;;;;;;19.35;3.42;;;9.70;99.90;;;;;;5000854;28;20022;-62
2023/12/11 00:45:48;;;;;;;15.63;3.03;;;9.70;99.90;;;;;;5006465;28;20030;-62
2023/12/11 00:48:14;;;;;;;11.32;2.40;;;9.70;99.90;;;;;;5001639;28;20074;-62
2023/12/11 00:50:40;;;;;;;18.23;2.80;;;9.60;99.90;;;;;;5002472;28;20366;-62
2023/12/11 00:53:05;;;;;;;14.07;3.88;;;9.50;99.90;;;;;;5002176;28;20136;-62
2023/12/11 00:55:31;;;;;;;18.10;3.10;;;9.60;99.90;;;;;;5002272;28;20017;-62
2023/12/11 00:57:57;;;;;;;11.43;2.33;;;9.50;99.90;;;;;;5003298;28;20470;-62
2023/12/11 01:00:22;;;;;;;17.63;3.13;;;9.40;99.90;;;;;;4997364;28;20065;-62
2023/12/11 01:02:48;;;;;;;15.65;2.38;;;9.40;99.90;;;;;;5001959;28;20022;-62
2023/12/11 01:05:13;;;;;;;22.13;3.63;;;9.30;99.90;;;;;;4999581;28;20031;-62
2023/12/11 01:07:39;;;;;;;20.52;3.20;;;9.30;99.90;;;;;;5000782;28;20053;-62
2023/12/11 01:10:08;;;;;;;17.05;3.22;;;9.20;99.90;;;;;;5000146;28;20037;-62
2023/12/11 01:12:35;;;;;;;22.65;3.22;;;9.20;99.90;;;;;;5000758;28;20019;-61
2023/12/11 01:15:01;;;;;;;22.65;3.80;;;9.20;99.90;;;;;;5000371;28;20076;-62
2023/12/11 01:17:26;;;;;;;22.98;3.03;;;9.20;99.90;;;;;;5002629;28;20026;-62
2023/12/11 01:19:53;;;;;;;13.65;2.80;;;9.20;99.90;;;;;;5000770;28;20154;-62
2023/12/11 01:22:19;;;;;;;22.17;3.67;;;9.20;99.90;;;;;;5002335;28;20030;-62
2023/12/11 01:24:44;;;;;;;17.00;2.92;;;9.20;99.90;;;;;;5000627;28;20041;-62
2023/12/11 01:27:10;;;;;;;23.77;3.20;;;9.30;99.90;;;;;;5001956;28;20042;-62
2023/12/11 01:29:35;;;;;;;21.35;2.95;;;9.30;99.90;;;;;;4999609;28;20022;-62
2023/12/11 01:32:03;;;;;;;23.42;3.67;;;9.40;99.90;;;;;;4998845;28;20579;-62
2023/12/11 01:34:29;;;;;;;12.05;1.95;;;9.40;99.90;;;;;;5003105;28;20065;-62
2023/12/11 01:36:54;;;;;;;17.20;3.15;;;9.50;99.90;;;;;;4999301;28;20507;-62
2023/12/11 01:39:20;;;;;;;21.85;3.40;;;9.40;99.90;;;;;;4999604;28;20104;-62
2023/12/11 01:41:46;;;;;;;23.83;3.60;;;9.50;99.90;;;;;;4998547;28;20034;-62
2023/12/11 01:44:11;;;;;;;32.55;4.50;;;9.50;99.90;;;;;;5000282;28;20021;-62
2023/12/11 01:46:38;;;;;;;22.50;3.42;;;9.50;99.90;;;;;;5003656;28;20029;-62
2023/12/11 01:49:07;;;;;;;21.63;3.28;;;9.60;99.90;;;;;;5002282;28;20076;-62
2023/12/11 01:51:33;;;;;;;14.65;2.75;;;9.60;99.90;;;;;;4999324;28;20458;-62
2023/12/11 01:53:58;;;;;;;16.73;3.30;;;9.70;99.90;;;;;;5001141;28;20025;-62
2023/12/11 01:56:25;;;;;;;21.63;2.60;;;9.70;99.90;;;;;;5002862;28;20475;-63
2023/12/11 01:58:51;;;;;;;17.35;3.30;;;9.60;99.90;;;;;;4996176;28;20125;-63
2023/12/11 02:01:21;;;;;;;19.35;3.20;;;9.60;99.90;;;;;;5002376;28;20022;-63
2023/12/11 02:03:49;;;;;;;21.15;3.40;;;9.70;99.90;;;;;;5000201;28;20041;-63
2023/12/11 02:06:15;;;;;;;28.05;3.75;;;9.60;99.90;;;;;;4998281;28;20433;-63
2023/12/11 02:08:41;;;;;;;16.45;4.32;;;9.60;99.90;;;;;;5001351;28;20037;-63
2023/12/11 02:11:07;;;;;;;23.58;3.47;;;9.50;99.90;;;;;;4998427;28;20378;-63
2023/12/11 02:13:33;;;;;;;20.13;3.08;;;9.40;99.90;;;;;;4998622;28;20478;-63
2023/12/11 02:15:59;;;;;;;20.45;3.40;;;9.40;99.90;;;;;;4983085;28;20080;-63
2023/12/11 02:18:25;;;;;;;19.10;3.47;;;9.50;99.90;;;;;;5000737;28;20026;-63
2023/12/11 02:20:53;;;;;;;18.10;3.47;;;9.50;99.90;;;;;;5000846;28;20050;-63
2023/12/11 02:23:46;;;;;;;21.15;3.13;;;9.50;99.90;;;;;;5000291;28;20299;-63
2023/12/11 02:26:17;;;;;;;17.42;3.10;;;9.50;99.90;;;;;;4979802;28;20041;-63
2023/12/11 02:28:43;;;;;;;20.83;3.67;;;9.50;99.90;;;;;;4999752;28;20034;-63
2023/12/11 02:31:09;;;;;;;21.00;3.13;;;9.50;99.90;;;;;;5000342;28;20092;-63
2023/12/11 02:33:35;;;;;;;18.45;3.15;;;9.50;99.90;;;;;;4999850;28;20029;-63
2023/12/11 02:36:01;;;;;;;15.00;3.13;;;9.50;99.90;;;;;;4984257;28;20060;-63
2023/12/11 02:38:29;;;;;;;17.92;3.80;;;9.50;99.90;;;;;;5001032;28;20029;-63
2023/12/11 02:40:55;;;;;;;20.13;3.55;;;9.50;99.90;;;;;;4980290;28;20022;-63
2023/12/11 02:43:20;;;;;;;25.05;4.43;;;9.50;99.90;;;;;;4998846;28;20396;-63
2023/12/11 02:45:46;;;;;;;26.42;3.13;;;9.50;99.90;;;;;;5002758;28;20386;-63
2023/12/11 02:48:12;;;;;;;22.08;3.42;;;9.40;99.90;;;;;;5000329;28;20060;-63
2023/12/11 02:50:38;;;;;;;22.40;3.47;;;9.30;99.90;;;;;;4998710;28;20018;-63
2023/12/11 02:53:04;;;;;;;19.92;3.45;;;9.30;99.90;;;;;;5000769;28;20062;-63
2023/12/11 02:55:30;;;;;;;18.73;2.63;;;9.30;99.90;;;;;;4998613;28;20489;-63
2023/12/11 02:58:00;;;;;;;21.17;2.95;;;9.40;99.90;;;;;;5001539;28;20572;-63
2023/12/11 03:00:27;;;;;;;16.35;3.67;;;9.40;99.90;;;;;;4997886;28;20033;-63
2023/12/11 03:02:53;;;;;;;19.80;2.88;;;9.50;99.90;;;;;;4998112;28;20023;-63
2023/12/11 03:05:18;;;;;;;17.63;3.58;;;9.60;99.90;;;;;;4997235;28;20066;-63
2023/12/11 03:07:44;;;;;;;19.48;2.90;;;9.60;99.90;;;;;;5001110;28;20104;-63
2023/12/11 03:10:10;;;;;;;19.10;4.20;;;9.50;99.90;;;;;;4997408;28;20065;-63
2023/12/11 03:12:35;;;;;;;21.50;3.53;;;9.50;99.90;;;;;;4999262;28;20029;-63
2023/12/11 03:15:02;;;;;;;15.57;2.97;;;9.40;99.90;;;;;;4997929;28;20106;-63
2023/12/11 03:17:28;;;;;;;26.13;3.42;;;9.30;99.90;;;;;;5000705;28;20145;-63
2023/12/11 03:19:54;;;;;;;18.65;2.35;;;9.30;99.90;;;;;;4998279;28;20097;-64
2023/12/11 03:22:19;;;;;;;21.17;3.65;;;9.20;99.90;;;;;;5000067;28;20037;-64
2023/12/11 03:24:46;;;;;;;22.98;2.58;;;9.20;99.90;;;;;;4998219;28;20122;-63
2023/12/11 03:27:12;;;;;;;16.08;3.28;;;9.20;99.90;;;;;;4998439;28;20076;-63
2023/12/11 03:29:38;;;;;;;18.38;3.08;;;9.30;99.90;;;;;;4998045;28;20030;-63
2023/12/11 03:32:04;;;;;;;25.30;3.50;;;9.20;99.90;;;;;;4999624;28;20033;-63
2023/12/11 03:34:29;;;;;;;22.08;3.33;;;9.20;99.90;;;;;;5001045;28;20033;-62
2023/12/11 03:36:55;;;;;;;17.92;3.08;;;9.20;99.90;;;;;;5000927;28;20026;-62
2023/12/11 03:39:21;;;;;;;19.55;3.33;;;9.20;99.90;;;;;;4998453;28;20039;-62
2023/12/11 03:41:48;;;;;;;19.27;3.50;;;9.20;99.90;;;;;;5001402;28;20374;-62
2023/12/11 03:44:16;;;;;;;8.57;2.13;;;9.20;99.90;;;;;;4997451;28;20509;-62
2023/12/11 03:46:44;;;;;;;22.90;4.03;;;9.20;99.90;;;;;;5002389;28;20034;-62
2023/12/11 03:49:10;;;;;;;19.42;3.15;;;9.20;99.90;;;;;;5001486;28;20105;-62
2023/12/11 03:51:36;;;;;;;19.92;2.80;;;9.20;99.90;;;;;;4999829;28;20423;-62
2023/12/11 03:54:01;;;;;;;18.23;2.97;;;9.30;99.90;;;;;;5000478;28;20108;-62
2023/12/11 03:56:27;;;;;;;20.63;3.17;;;9.20;99.90;;;;;;5001606;28;20109;-62
2023/12/11 03:58:53;;;;;;;14.73;2.40;;;9.30;99.90;;;;;;5000510;28;20040;-62
2023/12/11 04:01:19;;;;;;;22.05;3.08;;;9.40;99.90;;;;;;4997664;28;20560;-62
2023/12/11 04:03:44;;;;;;;12.07;2.38;;;9.40;99.90;;;;;;5000237;28;20027;-62
2023/12/11 04:06:10;;;;;;;15.05;2.55;;;9.50;99.90;;;;;;4997153;28;20034;-63
2023/12/11 04:08:42;;;;;;;15.40;2.30;;;9.50;99.90;;;;;;4999414;28;20505;-63
2023/12/11 04:11:09;;;;;;;9.65;1.98;;;9.30;99.90;;;;;;4997709;28;20027;-63
2023/12/11 04:13:35;;;;;;;15.25;2.72;;;9.10;99.90;;;;;;4998290;28;20235;-63
2023/12/11 04:16:03;;;;;;;16.10;2.42;;;8.90;99.90;;;;;;4997385;28;20034;-63
2023/12/11 04:18:32;;;;;;;15.43;2.22;;;8.90;99.90;;;;;;5000029;28;20037;-63
2023/12/11 04:20:58;;;;;;;16.00;2.28;;;8.80;99.90;;;;;;4997002;28;20057;-63
2023/12/11 04:23:24;;;;;;;16.55;2.75;;;8.80;99.90;;;;;;4999862;28;20036;-63
2023/12/11 04:25:53;;;;;;;21.70;3.15;;;8.70;99.90;;;;;;4997621;28;20713;-63
2023/12/11 04:28:19;;;;;;;19.95;2.97;;;8.80;99.90;;;;;;4999646;28;20076;-63
2023/12/11 04:30:46;;;;;;;17.38;3.28;;;8.90;99.90;;;;;;4998576;28;20022;-63
2023/12/11 04:33:14;;;;;;;20.10;3.55;;;9.00;99.90;;;;;;4999341;28;20022;-63
2023/12/11 04:35:39;;;;;;;17.08;2.67;;;9.00;99.90;;;;;;4997728;28;20034;-63
2023/12/11 04:38:05;;;;;;;17.40;3.65;;;9.10;99.90;;;;;;4999761;28;20069;-63
2023/12/11 04:40:33;;;;;;;15.60;2.75;;;9.10;99.90;;;;;;4998182;28;20018;-63
2023/12/11 04:42:59;;;;;;;15.23;2.90;;;9.20;99.90;;;;;;4997356;28;20046;-63
2023/12/11 04:45:24;;;;;;;10.50;2.15;;;9.20;99.90;;;;;;5003332;28;20073;-62
2023/12/11 04:47:50;;;;;;;16.40;2.97;;;9.20;99.90;;;;;;4998570;28;20101;-62
2023/12/11 04:50:18;;;;;;;17.55;3.22;;;9.20;99.90;;;;;;4997565;28;20058;-62
2023/12/11 04:52:44;;;;;;;16.60;2.97;;;9.20;99.90;;;;;;4998232;28;20554;-62
2023/12/11 04:55:10;;;;;;;14.77;2.70;;;9.30;99.90;;;;;;4998257;28;20101;-62
2023/12/11 04:57:35;;;;;;;17.27;3.53;;;9.30;99.90;;;;;;4998596;28;20106;-62
2023/12/11 05:00:01;;;;;;;15.93;2.80;;;9.40;99.90;;;;;;4998834;28;20027;-62
2023/12/11 05:02:26;;;;;;;9.45;2.13;;;9.40;99.90;;;;;;4999119;28;20492;-62
2023/12/11 05:04:52;;;;;;;15.38;2.67;;;9.40;99.90;;;;;;4983240;28;20049;-63
2023/12/11 05:07:18;;;;;;;10.23;2.10;;;9.30;99.90;;;;;;4999275;28;20032;-63
2023/12/11 05:09:43;;;;;;;17.48;2.75;;;9.10;99.90;;;;;;4984520;28;20026;-63
2023/12/11 05:12:09;;;;;;;8.70;1.70;;;8.90;99.90;;;;;;5000377;28;20383;-63
2023/12/11 05:14:34;;;;;;;11.80;2.17;;;8.70;99.90;;;;;;4997247;28;20022;-63
2023/12/11 05:17:02;;;;;;;20.25;3.08;;;8.60;99.90;;;;;;4999060;28;20034;-63
2023/12/11 05:19:28;;;;;;;14.23;2.45;;;8.60;99.90;;;;;;4983820;28;20092;-63
2023/12/11 05:21:55;;;;;;;15.40;2.97;;;8.50;99.90;;;;;;4982636;28;20057;-63
2023/12/11 05:24:21;;;;;;;17.02;3.33;;;8.50;99.90;;;;;;5000544;28;20073;-64
2023/12/11 05:26:46;;;;;;;10.98;2.55;;;8.40;99.90;;;;;;5001538;28;20034;-63
2023/12/11 05:29:12;;;;;;;18.20;2.70;;;8.40;99.90;;;;;;4999070;28;20030;-63
2023/12/11 05:31:38;;;;;;;10.82;2.13;;;8.50;99.90;;;;;;4999098;28;20041;-63
2023/12/11 05:34:03;;;;;;;8.68;2.17;;;8.60;99.90;;;;;;4998694;28;20018;-64
2023/12/11 05:36:29;;;;;;;26.73;2.97;;;8.50;99.90;;;;;;4997318;28;20037;-64
2023/12/11 05:38:55;;;;;;;12.77;1.85;;;8.50;99.90;;;;;;4991037;28;20061;-64
2023/12/11 05:41:20;;;;;;;14.45;2.55;;;8.50;99.90;;;;;;4996065;28;20485;-64
2023/12/11 05:43:47;;;;;;;16.60;2.78;;;8.50;99.90;;;;;;4992585;28;20026;-64
2023/12/11 05:46:13;;;;;;;7.78;1.67;;;8.40;99.90;;;;;;4997274;28;20018;-64
2023/12/11 05:48:38;;;;;;;9.38;1.95;;;8.40;99.90;;;;;;4992310;28;20022;-63
2023/12/11 05:51:04;;;;;;;11.10;2.05;;;8.40;99.90;;;;;;4994667;28;20094;-64
2023/12/11 05:53:30;;;;;;;9.95;1.83;;;8.30;99.90;;;;;;4995558;28;20148;-64
2023/12/11 05:55:56;;;;;;;8.98;2.25;;;8.30;99.90;;;;;;4990444;28;20068;-64
2023/12/11 05:58:21;;;;;;;9.70;2.05;;;8.20;99.90;;;;;;4991825;28;20168;-64
2023/12/11 06:00:49;;;;;;;10.93;2.38;;;8.20;99.90;;;;;;4997507;28;20291;-64
2023/12/11 06:03:15;;;;;;;6.68;1.77;;;8.10;99.90;;;;;;4995566;28;20026;-64
2023/12/11 06:05:41;;;;;;;9.05;2.30;;;8.20;99.90;;;;;;4994760;28;20504;-64
2023/12/11 06:08:06;;;;;;;19.33;2.78;;;8.20;99.90;;;;;;4987803;28;20034;-64
2023/12/11 06:10:33;;;;;;;11.20;1.98;;;8.20;99.90;;;;;;4998439;28;20025;-64
2023/12/11 06:12:58;;;;;;;15.20;2.72;;;8.10;99.90;;;;;;4991079;28;20037;-64
2023/12/11 06:15:24;;;;;;;10.15;2.30;;;8.10;99.90;;;;;;4994619;28;20474;-64
2023/12/11 06:17:49;;;;;;;19.25;2.95;;;8.10;99.90;;;;;;4992964;28;20030;-64
2023/12/11 06:20:15;;;;;;;16.45;3.13;;;8.10;99.90;;;;;;4997045;28;20583;-64
2023/12/11 06:22:41;;;;;;;14.68;2.63;;;8.20;99.90;;;;;;4995561;28;20097;-64
2023/12/11 06:25:07;;;;;;;18.23;2.92;;;8.30;99.90;;;;;;4980896;28;20482;-64
2023/12/11 06:27:32;;;;;;;22.17;3.50;;;8.40;99.90;;;;;;4986561;28;20021;-64
2023/12/11 06:29:59;;;;;;;15.07;3.15;;;8.50;99.90;;;;;;4981710;28;20085;-64
2023/12/11 06:32:25;;;;;;;14.35;2.53;;;8.70;99.90;;;;;;5000477;28;20113;-64
2023/12/11 06:34:50;;;;;;;13.20;2.50;;;8.70;99.90;;;;;;4995595;28;20126;-64
2023/12/11 06:37:16;;;;;;;11.85;1.80;;;8.80;99.90;;;;;;5000881;28;20025;-64
2023/12/11 06:39:44;;;;;;;16.27;3.05;;;8.80;99.90;;;;;;4981465;28;20113;-64
2023/12/11 06:42:09;;;;;;;10.07;2.53;;;8.90;99.90;;;;;;4982011;28;20025;-64
2023/12/11 06:44:36;;;;;;;15.25;2.88;;;8.90;99.90;;;;;;4998501;28;20089;-64
2023/12/11 06:47:01;;;;;;;15.77;3.80;;;9.00;99.90;;;;;;4996630;28;20018;-64
2023/12/11 06:49:27;;;;;;;10.90;2.55;;;9.00;99.90;;;;;;4997187;28;20030;-64
2023/12/11 06:51:55;;;;;;;18.63;2.78;;;9.00;99.90;;;;;;4998366;28;20385;-64
2023/12/11 06:54:20;;;;;;;18.38;3.63;;;9.00;99.90;;;;;;4994746;28;20434;-64
2023/12/11 06:56:46;;;;;;;16.15;2.88;;;9.10;99.90;;;;;;4997991;28;20178;-64
2023/12/11 06:59:12;;;;;;;14.90;2.60;;;9.10;99.90;;;;;;4987132;28;20054;-64
2023/12/11 07:01:38;;;;;;;13.93;2.63;;;9.00;99.90;;;;;;4981412;28;20064;-64
2023/12/11 07:04:07;;;;;;;8.95;2.47;;;8.90;99.90;;;;;;4978743;28;20042;-64
2023/12/11 07:06:32;;;;;;;15.45;3.08;;;8.90;99.90;;;;;;4998727;28;20057;-64
2023/12/11 07:08:58;;;;;;;21.67;4.07;;;8.90;99.90;;;;;;4979337;28;20117;-64
2023/12/11 07:11:26;;;;;;;15.77;2.88;;;8.90;99.90;;;;;;4995615;28;20023;-64
2023/12/11 07:13:53;;;;;;;13.05;2.22;;;9.00;99.90;;;;;;4989296;28;20030;-65
2023/12/11 07:16:19;;;;;;;16.27;2.72;;;9.00;99.90;;;;;;4990129;28;20113;-64
2023/12/11 07:18:44;;;;;;;11.90;3.03;;;9.00;99.90;;;;;;5000073;28;20398;-64
2023/12/11 07:21:11;;;;;;;15.35;2.35;;;9.00;99.90;;;;;;4980369;28;20049;-64
2023/12/11 07:23:38;;;;;;;13.93;2.40;;;9.00;99.90;;;;;;4982606;28;20125;-64
2023/12/11 07:26:07;;;;;;;17.20;2.60;;;9.00;99.90;;;;;;4997363;28;20034;-64
2023/12/11 07:28:33;;;;;;;20.20;3.10;;;9.00;99.90;;;;;;5000789;28;20030;-64
2023/12/11 07:31:00;;;;;;;15.77;3.03;;;8.90;99.90;;;;;;4999127;28;20037;-64
2023/12/11 07:33:26;;;;;;;16.85;2.72;;;8.90;99.90;;;;;;4998520;28;20045;-64
2023/12/11 07:35:51;;;;;;;11.32;2.30;;;8.90;99.90;;;;;;4997563;28;20026;-64
2023/12/11 07:38:17;;;;;;;10.80;2.25;;;8.90;99.90;;;;;;4980727;28;20026;-64
2023/12/11 07:40:43;;;;;;;13.80;2.72;;;9.00;99.90;;;;;;5001273;28;20022;-64
2023/12/11 07:43:09;;;;;;;19.05;2.53;;;9.00;99.90;;;;;;4995621;28;20133;-64
2023/12/11 07:45:35;;;;;;;17.45;2.95;;;9.00;99.90;;;;;;4995057;28;20455;-64
2023/12/11 07:48:00;;;;;;;19.40;2.85;;;9.00;99.90;;;;;;5008545;28;20492;-64
2023/12/11 07:50:26;;;;;;;14.93;3.20;;;9.00;99.90;;;;;;5002431;28;20022;-64
2023/12/11 07:52:52;;;;;;;19.23;2.95;;;9.00;99.90;;;;;;4997290;28;20022;-65
2023/12/11 07:55:18;;;;;;;10.45;2.33;;;9.10;99.90;;;;;;4999630;28;20144;-63
2023/12/11 07:57:43;;;;;;;13.88;3.30;;;9.00;99.90;;;;;;4996211;28;20113;-63
2023/12/11 08:00:09;;;;;;;15.07;2.65;;;9.00;99.90;;;;;;5000601;28;20346;-66
2023/12/11 08:02:37;;;;;;;13.45;2.90;;;9.00;99.90;;;;;;4985342;28;20038;-63
2023/12/11 08:05:03;;;;;;;19.73;3.60;;;9.00;99.90;;;;;;4996876;28;20031;-63
2023/12/11 08:07:28;;;;;;;14.70;2.30;;;9.00;99.90;;;;;;4996215;28;20092;-63
2023/12/11 08:09:54;;;;;;;11.05;2.38;;;8.90;99.90;;;;;;5000391;28;20481;-63
2023/12/11 08:12:20;;;;;;;12.80;2.15;;;8.90;99.90;;;;;;4996690;28;20058;-65
2023/12/11 08:14:45;;;;;;;17.80;3.85;;;8.90;99.90;;;;;;4998668;28;20030;-63
2023/12/11 08:17:11;;;;;;;14.25;3.05;;;8.80;99.90;;;;;;4978975;28;20084;-63
2023/12/11 08:19:37;;;;;;;12.68;2.47;;;8.80;99.90;;;;;;4999973;28;20478;-63
2023/12/11 08:22:04;;;;;;;17.92;2.47;;;8.80;99.90;;;;;;5000847;28;20137;-63
2023/12/11 08:24:30;;;;;;;14.75;2.63;;;8.70;99.90;;;;;;4996660;28;20053;-63
2023/12/11 08:26:56;;;;;;;14.65;3.17;;;8.70;99.90;;;;;;5000084;28;20060;-63
2023/12/11 08:29:22;;;;;;;11.65;2.40;;;8.70;99.90;;;;;;4979342;28;20036;-65
2023/12/11 08:31:48;;;;;;;12.52;2.67;;;8.80;99.90;;;;;;4999965;28;20536;-63
2023/12/11 08:34:13;;;;;;;16.83;2.92;;;8.80;99.90;;;;;;4997880;28;20079;-65
2023/12/11 08:36:39;;;;;;;17.45;2.55;;;8.70;99.90;;;;;;4996032;28;20426;-63
2023/12/11 08:39:05;;;;;;;14.65;3.08;;;8.70;99.90;;;;;;5003138;28;20156;-63
2023/12/11 08:41:30;;;;;;;14.65;2.13;;;8.70;99.90;;;;;;5000640;28;20092;-63
2023/12/11 08:43:56;;;;;;;18.80;2.20;;;8.70;99.90;;;;;;5001606;28;20109;-63
2023/12/11 08:46:22;;;;;;;16.88;2.92;;;8.60;99.90;;;;;;4988702;28;20448;-63
2023/12/11 08:48:48;;;;;;;13.65;2.63;;;8.70;99.90;;;;;;5001130;28;20419;-63
2023/12/11 08:51:18;;;;;;;18.20;3.08;;;8.70;99.90;;;;;;5002894;28;20113;-63
2023/12/11 08:53:43;;;;;;;10.75;2.42;;;8.70;99.90;;;;;;4983876;28;20081;-63
2023/12/11 08:56:09;;;;;;;10.82;2.30;;;8.70;99.90;;;;;;5004210;28;20065;-63
2023/12/11 08:58:36;;;;;;;13.43;2.22;;;8.80;99.90;;;;;;5002139;28;20033;-65
2023/12/11 09:01:03;;;;;;;9.88;1.70;;;8.90;99.90;;;;;;5001943;28;20124;-65
2023/12/11 09:03:29;;;;;;;19.75;1.90;;;8.90;99.90;;;;;;5003737;28;20033;-65
2023/12/11 09:05:54;;;;;;;10.52;1.80;;;8.90;99.90;;;;;;4984780;28;20026;-63
2023/12/11 09:08:20;;;;;;;13.68;2.75;;;8.90;99.90;;;;;;5001352;28;20057;-63
2023/12/11 09:10:46;;;;;;;9.57;1.98;;;8.90;99.90;;;;;;5001733;28;20049;-65
2023/12/11 09:13:12;;;;;;;13.07;2.70;;;9.00;99.90;;;;;;5000152;28;20729;-63
2023/12/11 09:15:37;;;;;;;12.00;2.55;;;9.00;99.90;;;;;;5000887;28;20073;-63
2023/12/11 09:18:04;;;;;;;10.75;1.90;;;9.00;99.90;;;;;;5003827;28;20045;-63
2023/12/11 09:20:30;;;;;;;14.20;2.78;;;9.10;99.90;;;;;;5003310;28;20050;-65
2023/12/11 09:22:56;;;;;;;12.75;3.95;;;9.10;99.90;;;;;;5001346;28;20049;-65
2023/12/11 09:25:24;;;;;;;17.52;3.13;;;9.10;99.90;;;;;;4984088;28;20030;-63
2023/12/11 09:27:49;;;;;;;15.98;2.17;;;9.10;99.90;;;;;;5001049;28;20311;-63
2023/12/11 09:30:15;;;;;;;13.43;2.38;;;9.10;99.90;;;;;;5002225;28;20140;-65
2023/12/11 09:32:41;;;;;;;11.65;2.45;;;9.10;99.90;;;;;;4982397;28;20093;-63
2023/12/11 09:35:07;;;;;;;10.98;2.53;;;9.10;99.90;;;;;;4981910;28;20027;-63
2023/12/11 09:37:33;;;;;;;4.78;1.48;;;9.10;99.90;;;;;;5001283;28;20496;-63
2023/12/11 09:39:59;;;;;;;12.18;2.58;;;9.20;99.90;;;;;;5000377;28;20030;-65
2023/12/11 09:42:26;;;;;;;13.25;2.50;;;9.30;99.90;;;;;;4984112;28;20025;-63
2023/12/11 09:44:52;;;;;;;14.45;2.42;;;9.40;99.90;;;;;;5000475;28;20026;-65
2023/12/11 09:47:31;;;;;;;14.52;2.92;;;9.50;99.90;;;;;;5002838;28;20512;-64
2023/12/11 09:49:57;;;;;;;16.50;2.20;;;9.50;99.90;;;;;;4999934;28;20027;-64
2023/12/11 09:52:27;;;;;;;14.82;2.90;;;9.50;99.90;;;;;;4983537;28;20032;-64
2023/12/11 09:54:53;;;;;;;16.57;3.33;;;9.50;99.90;;;;;;5000957;28;20449;-64
2023/12/11 09:57:19;;;;;;;16.13;3.25;;;9.40;99.90;;;;;;5002724;28;20269;-62
2023/12/11 09:59:49;;;;;;;12.23;2.47;;;9.30;99.90;;;;;;5000340;28;20068;-64
2023/12/11 10:02:16;;;;;;;10.52;2.42;;;9.20;99.90;;;;;;4987239;28;20124;-64
2023/12/11 10:05:00;;;;;;;9.63;2.28;;;9.20;99.90;;;;;;4999433;28;20038;-64
2023/12/11 10:07:26;;;;;;;12.43;2.85;;;9.20;99.90;;;;;;4999644;28;20034;-64
2023/12/11 10:09:52;;;;;;;14.25;2.42;;;9.20;99.90;;;;;;5001306;28;20393;-64
2023/12/11 10:12:17;;;;;;;11.50;2.75;;;9.20;99.90;;;;;;4999884;28;20050;-64
2023/12/11 10:14:58;;;;;;;18.05;3.55;;;9.20;99.90;;;;;;4981303;28;20025;-64
2023/12/11 10:17:24;;;;;;;7.95;2.15;;;9.20;99.90;;;;;;5001665;28;20440;-64
2023/12/11 10:19:49;;;;;;;14.18;2.95;;;9.30;99.90;;;;;;4999218;28;20031;-64
2023/12/11 10:22:26;;;;;;;12.55;3.05;;;9.30;99.90;;;;;;5002265;28;20062;-64
2023/12/11 10:24:52;;;;;;;10.32;3.30;;;9.40;99.90;;;;;;4981913;28;20114;-62
2023/12/11 10:27:22;;;;;;;14.95;3.70;;;9.40;99.90;;;;;;5001198;28;20475;-64
2023/12/11 10:29:47;;;;;;;13.80;3.00;;;9.50;99.90;;;;;;4999908;28;20034;-63
2023/12/11 10:32:13;;;;;;;12.25;2.63;;;9.50;99.90;;;;;;5000539;28;20100;-64
2023/12/11 10:34:41;;;;;;;17.92;3.50;;;9.50;99.90;;;;;;5000176;28;20076;-64
2023/12/11 10:37:07;;;;;;;14.57;3.00;;;9.40;99.90;;;;;;4997913;28;20045;-64
2023/12/11 10:39:32;;;;;;;26.60;2.90;;;9.40;99.90;;;;;;4981965;28;20058;-64
2023/12/11 10:42:14;;;;;;;13.32;2.83;;;9.40;99.90;;;;;;4999746;28;20473;-62
2023/12/11 10:44:40;;;;;;;12.02;3.50;;;9.40;99.90;;;;;;4999558;28;20026;-64
2023/12/11 10:47:07;;;;;;;12.38;2.90;;;9.40;99.90;;;;;;5001270;28;20027;-62
2023/12/11 10:49:33;;;;;;;12.38;2.65;;;9.30;99.90;;;;;;4998781;28;20034;-62
2023/12/11 10:52:02;;;;;;;10.52;2.38;;;9.40;99.90;;;;;;4998444;28;20026;-62
2023/12/11 10:54:30;;;;;;;9.77;2.13;;;9.30;99.90;;;;;;4999981;28;20113;-64
2023/12/11 10:57:00;;;;;;;14.75;2.80;;;9.30;99.90;;;;;;5002154;28;20069;-64
2023/12/11 10:59:29;;;;;;;13.32;3.70;;;9.20;99.90;;;;;;4999101;28;20068;-64
2023/12/11 11:01:57;;;;;;;13.90;3.10;;;9.20;99.90;;;;;;4998113;28;20109;-64
2023/12/11 11:04:24;;;;;;;14.13;3.47;;;9.20;99.90;;;;;;5001329;28;20084;-64
2023/12/11 11:07:20;;;;;;;14.50;3.35;;;9.20;99.90;;;;;;4997950;28;20450;-64
2023/12/11 11:10:23;;;;;;;14.20;4.65;;;9.20;99.90;;;;;;5000667;28;20084;-64
2023/12/11 11:13:05;;;;;;;11.48;3.20;;;9.10;99.90;;;;;;4995743;28;20593;-64
2023/12/11 11:15:31;;;;;;;11.00;3.53;;;9.00;99.90;;;;;;4998166;28;20545;-64
2023/12/11 11:18:09;;;;;;;12.05;2.80;;;9.00;99.90;;;;;;4982861;28;20168;-64
2023/12/11 11:20:39;;;;;;;10.50;3.17;;;8.90;99.90;;;;;;4997782;28;20562;-64
2023/12/11 11:23:26;;;;;;;10.77;3.35;;;8.80;99.90;;;;;;5000315;28;20057;-64
2023/12/11 11:25:52;;;;;;;17.40;3.55;;;8.80;99.90;;;;;;4997996;28;20289;-64
2023/12/11 11:28:40;;;;;;;10.82;3.22;;;8.80;99.90;;;;;;5001444;28;20018;-64
2023/12/11 11:31:07;;;;;;;16.08;4.63;;;8.80;99.90;;;;;;4983460;28;20034;-64
2023/12/11 11:33:49;;;;;;;8.95;2.85;;;8.80;99.90;;;;;;4997591;28;20377;-64
2023/12/11 11:36:16;;;;;;;17.05;4.55;;;8.60;99.90;;;;;;4980263;28;20025;-64
2023/12/11 11:38:59;;;;;;;13.63;2.67;;;8.60;99.90;;;;;;4981244;28;20026;-65
2023/12/11 11:41:29;;;;;;;14.65;5.13;;;8.50;99.90;;;;;;4998564;28;20468;-65
2023/12/11 11:44:07;;;;;;;11.80;3.30;;;8.50;99.90;;;;;;4998377;28;20028;-65
2023/12/11 11:46:57;;;;;;;13.23;3.30;;;8.40;99.90;;;;;;4984106;28;20133;-65
2023/12/11 11:49:29;;;;;;;10.63;3.88;;;8.40;99.90;;;;;;4999638;28;20048;-64
2023/12/11 11:51:55;;;;;;;15.88;4.57;;;8.50;99.90;;;;;;4998388;28;20032;-64
2023/12/11 11:54:24;;;;;;;15.90;4.45;;;8.40;99.90;;;;;;5000302;28;20101;-64
2023/12/11 11:56:51;;;;;;;15.23;4.85;;;8.60;99.90;;;;;;4980513;28;20027;-64
2023/12/11 11:59:17;;;;;;;8.95;2.67;;;8.60;99.90;;;;;;5000423;28;20038;-64
2023/12/11 12:01:58;;;;;;;9.15;2.28;;;8.70;99.90;;;;;;4999934;28;20095;-64
2023/12/11 12:04:28;;;;;;;8.77;2.28;;;8.70;99.90;;;;;;4997784;28;20034;-64
2023/12/11 12:06:57;;;;;;;7.80;2.53;;;8.70;99.90;;;;;;4997147;28;20121;-64
2023/12/11 12:09:22;;;;;;;8.45;2.65;;;8.70;99.90;;;;;;5000031;28;20030;-64
2023/12/11 12:11:48;;;;;;;8.98;2.13;;;8.80;99.90;;;;;;4997518;28;20061;-64
2023/12/11 12:14:14;;;;;;;9.07;2.83;;;8.80;99.90;;;;;;5004575;28;20495;-64
2023/12/11 12:16:40;;;;;;;6.45;2.10;;;8.80;99.90;;;;;;5003792;28;20134;-64
2023/12/11 12:19:06;;;;;;;11.30;2.40;;;8.70;99.90;;;;;;5006467;28;20034;-64
2023/12/11 12:21:45;;;;;;;8.55;2.70;;;8.80;99.90;;;;;;5003487;28;20038;-64
2023/12/11 12:24:10;;;;;;;8.52;2.38;;;8.70;99.90;;;;;;5004461;28;20430;-64
2023/12/11 12:26:36;;;;;;;8.93;3.00;;;8.70;99.90;;;;;;5005668;28;20060;-64
2023/12/11 12:29:03;;;;;;;11.43;3.25;;;8.60;99.90;;;;;;5004216;28;20445;-64
2023/12/11 12:31:30;;;;;;;11.18;2.72;;;8.60;99.90;;;;;;4987730;28;20053;-64
2023/12/11 12:33:56;;;;;;;9.38;2.33;;;8.70;99.90;;;;;;4987249;28;20039;-64
2023/12/11 12:36:22;;;;;;;13.63;3.03;;;8.60;99.90;;;;;;5003238;28;20030;-64
2023/12/11 12:38:48;;;;;;;7.47;2.70;;;8.60;99.90;;;;;;5004777;28;20362;-64
2023/12/11 12:41:14;;;;;;;11.10;2.92;;;8.70;99.90;;;;;;5005062;28;20445;-64
2023/12/11 12:43:42;;;;;;;12.68;3.42;;;8.60;99.90;;;;;;5002741;28;20026;-64
2023/12/11 12:46:08;;;;;;;11.80;3.17;;;8.70;99.90;;;;;;5009093;28;20393;-64
2023/12/11 12:48:33;;;;;;;7.80;2.40;;;8.70;99.90;;;;;;5004355;28;20045;-64